sensor_id;sensor_type;location;lat;lon;timestamp;P1;durP1;ratioP1;P2;durP2;ratioP2
68168;SDS011;54981;50.206;15.978;2023-02-18T00:02:22;15.43;;;14.13;;
68168;SDS011;54981;50.206;15.978;2023-02-18T00:04:53;16.23;;;14.82;;
68168;SDS011;54981;50.206;15.978;2023-02-18T00:07:24;14.48;;;13.05;;
68168;SDS011;54981;50.206;15.978;2023-02-18T00:09:54;16.30;;;14.98;;
68168;SDS011;54981;50.206;15.978;2023-02-18T00:12:25;15.07;;;13.77;;
68168;SDS011;54981;50.206;15.978;2023-02-18T00:14:55;15.05;;;13.75;;
68168;SDS011;54981;50.206;15.978;2023-02-18T00:17:27;15.98;;;14.40;;
68168;SDS011;54981;50.206;15.978;2023-02-18T00:19:58;17.98;;;16.40;;
68168;SDS011;54981;50.206;15.978;2023-02-18T00:22:28;16.05;;;14.50;;
68168;SDS011;54981;50.206;15.978;2023-02-18T00:24:58;14.65;;;13.35;;
68168;SDS011;54981;50.206;15.978;2023-02-18T00:27:29;16.95;;;15.48;;
68168;SDS011;54981;50.206;15.978;2023-02-18T00:29:59;17.13;;;15.43;;
68168;SDS011;54981;50.206;15.978;2023-02-18T00:32:29;15.63;;;14.23;;
68168;SDS011;54981;50.206;15.978;2023-02-18T00:35:00;17.58;;;15.98;;
68168;SDS011;54981;50.206;15.978;2023-02-18T00:37:30;17.77;;;16.08;;
68168;SDS011;54981;50.206;15.978;2023-02-18T00:40:01;18.95;;;17.23;;
68168;SDS011;54981;50.206;15.978;2023-02-18T00:42:31;20.38;;;18.38;;
68168;SDS011;54981;50.206;15.978;2023-02-18T00:45:01;19.40;;;17.58;;
68168;SDS011;54981;50.206;15.978;2023-02-18T00:47:32;20.02;;;18.27;;
68168;SDS011;54981;50.206;15.978;2023-02-18T00:50:02;20.58;;;18.73;;
68168;SDS011;54981;50.206;15.978;2023-02-18T00:52:33;18.55;;;16.65;;
68168;SDS011;54981;50.206;15.978;2023-02-18T00:55:03;17.98;;;15.77;;
68168;SDS011;54981;50.206;15.978;2023-02-18T00:57:34;18.58;;;16.88;;
68168;SDS011;54981;50.206;15.978;2023-02-18T01:00:05;17.10;;;15.48;;
68168;SDS011;54981;50.206;15.978;2023-02-18T01:02:36;17.85;;;16.13;;
68168;SDS011;54981;50.206;15.978;2023-02-18T01:05:06;17.13;;;15.63;;
68168;SDS011;54981;50.206;15.978;2023-02-18T01:07:37;18.80;;;17.15;;
68168;SDS011;54981;50.206;15.978;2023-02-18T01:10:07;17.25;;;15.77;;
68168;SDS011;54981;50.206;15.978;2023-02-18T01:12:37;16.23;;;14.85;;
68168;SDS011;54981;50.206;15.978;2023-02-18T01:15:08;16.02;;;14.50;;
68168;SDS011;54981;50.206;15.978;2023-02-18T01:17:40;17.35;;;15.95;;
68168;SDS011;54981;50.206;15.978;2023-02-18T01:20:11;16.50;;;15.00;;
68168;SDS011;54981;50.206;15.978;2023-02-18T01:22:42;14.90;;;13.68;;
68168;SDS011;54981;50.206;15.978;2023-02-18T01:25:13;16.40;;;14.90;;
68168;SDS011;54981;50.206;15.978;2023-02-18T01:27:44;15.38;;;13.93;;
68168;SDS011;54981;50.206;15.978;2023-02-18T01:30:15;15.85;;;14.55;;
68168;SDS011;54981;50.206;15.978;2023-02-18T01:32:47;16.73;;;15.32;;
68168;SDS011;54981;50.206;15.978;2023-02-18T01:35:18;15.25;;;13.80;;
68168;SDS011;54981;50.206;15.978;2023-02-18T01:37:50;15.90;;;14.50;;
68168;SDS011;54981;50.206;15.978;2023-02-18T01:40:21;16.60;;;15.10;;
68168;SDS011;54981;50.206;15.978;2023-02-18T01:42:53;15.48;;;13.98;;
68168;SDS011;54981;50.206;15.978;2023-02-18T01:48:24;15.75;;;14.55;;
68168;SDS011;54981;50.206;15.978;2023-02-18T01:50:59;16.83;;;15.32;;
68168;SDS011;54981;50.206;15.978;2023-02-18T01:56:41;16.30;;;14.90;;
68168;SDS011;54981;50.206;15.978;2023-02-18T01:59:22;17.33;;;15.68;;
68168;SDS011;54981;50.206;15.978;2023-02-18T02:01:54;14.82;;;13.50;;
68168;SDS011;54981;50.206;15.978;2023-02-18T02:04:26;15.63;;;14.23;;
68168;SDS011;54981;50.206;15.978;2023-02-18T02:06:56;16.15;;;14.60;;
68168;SDS011;54981;50.206;15.978;2023-02-18T02:09:27;16.30;;;14.88;;
68168;SDS011;54981;50.206;15.978;2023-02-18T02:23:09;17.65;;;16.05;;
68168;SDS011;54981;50.206;15.978;2023-02-18T02:28:50;16.95;;;15.40;;
68168;SDS011;54981;50.206;15.978;2023-02-18T02:40:37;17.77;;;16.17;;
68168;SDS011;54981;50.206;15.978;2023-02-18T02:43:20;17.52;;;15.77;;
68168;SDS011;54981;50.206;15.978;2023-02-18T02:46:20;17.25;;;15.75;;
68168;SDS011;54981;50.206;15.978;2023-02-18T02:49:04;15.68;;;14.27;;
68168;SDS011;54981;50.206;15.978;2023-02-18T02:51:59;17.02;;;15.45;;
68168;SDS011;54981;50.206;15.978;2023-02-18T02:54:32;16.50;;;15.10;;
68168;SDS011;54981;50.206;15.978;2023-02-18T02:57:07;16.90;;;15.40;;
68168;SDS011;54981;50.206;15.978;2023-02-18T02:59:41;18.00;;;16.30;;
68168;SDS011;54981;50.206;15.978;2023-02-18T03:21:35;19.88;;;17.80;;
68168;SDS011;54981;50.206;15.978;2023-02-18T03:24:13;21.02;;;19.02;;
68168;SDS011;54981;50.206;15.978;2023-02-18T03:26:51;21.67;;;19.45;;
68168;SDS011;54981;50.206;15.978;2023-02-18T03:29:25;19.67;;;17.77;;
68168;SDS011;54981;50.206;15.978;2023-02-18T03:31:59;20.20;;;18.35;;
68168;SDS011;54981;50.206;15.978;2023-02-18T03:34:37;20.40;;;18.45;;
68168;SDS011;54981;50.206;15.978;2023-02-18T03:37:14;20.23;;;18.42;;
68168;SDS011;54981;50.206;15.978;2023-02-18T03:39:45;20.75;;;18.75;;
68168;SDS011;54981;50.206;15.978;2023-02-18T03:42:27;20.52;;;18.52;;
68168;SDS011;54981;50.206;15.978;2023-02-18T03:44:58;20.73;;;18.73;;
68168;SDS011;54981;50.206;15.978;2023-02-18T03:47:29;21.48;;;19.48;;
68168;SDS011;54981;50.206;15.978;2023-02-18T03:49:59;20.40;;;18.38;;
68168;SDS011;54981;50.206;15.978;2023-02-18T03:52:29;19.60;;;17.85;;
68168;SDS011;54981;50.206;15.978;2023-02-18T03:55:00;18.08;;;16.33;;
68168;SDS011;54981;50.206;15.978;2023-02-18T03:57:30;18.95;;;17.13;;
68168;SDS011;54981;50.206;15.978;2023-02-18T04:00:02;18.02;;;16.30;;
68168;SDS011;54981;50.206;15.978;2023-02-18T04:02:35;17.27;;;15.63;;
68168;SDS011;54981;50.206;15.978;2023-02-18T04:05:05;18.20;;;16.30;;
68168;SDS011;54981;50.206;15.978;2023-02-18T04:07:36;16.65;;;15.20;;
68168;SDS011;54981;50.206;15.978;2023-02-18T04:10:06;15.98;;;14.57;;
68168;SDS011;54981;50.206;15.978;2023-02-18T04:12:37;16.58;;;15.07;;
68168;SDS011;54981;50.206;15.978;2023-02-18T04:15:08;16.25;;;14.95;;
68168;SDS011;54981;50.206;15.978;2023-02-18T04:17:38;15.25;;;13.93;;
68168;SDS011;54981;50.206;15.978;2023-02-18T04:20:09;16.20;;;14.80;;
68168;SDS011;54981;50.206;15.978;2023-02-18T04:22:40;14.98;;;13.45;;
68168;SDS011;54981;50.206;15.978;2023-02-18T04:25:10;16.33;;;14.82;;
68168;SDS011;54981;50.206;15.978;2023-02-18T04:27:40;16.35;;;14.85;;
68168;SDS011;54981;50.206;15.978;2023-02-18T04:30:11;15.43;;;13.88;;
68168;SDS011;54981;50.206;15.978;2023-02-18T04:32:41;13.98;;;12.68;;
68168;SDS011;54981;50.206;15.978;2023-02-18T04:35:12;14.73;;;13.23;;
68168;SDS011;54981;50.206;15.978;2023-02-18T04:37:42;15.15;;;13.70;;
68168;SDS011;54981;50.206;15.978;2023-02-18T04:40:13;14.93;;;13.38;;
68168;SDS011;54981;50.206;15.978;2023-02-18T04:42:44;16.10;;;14.75;;
68168;SDS011;54981;50.206;15.978;2023-02-18T04:45:14;14.32;;;12.93;;
68168;SDS011;54981;50.206;15.978;2023-02-18T04:47:44;14.98;;;13.43;;
68168;SDS011;54981;50.206;15.978;2023-02-18T04:50:15;14.77;;;13.38;;
68168;SDS011;54981;50.206;15.978;2023-02-18T04:52:45;15.85;;;14.30;;
68168;SDS011;54981;50.206;15.978;2023-02-18T04:55:16;15.50;;;14.02;;
68168;SDS011;54981;50.206;15.978;2023-02-18T04:57:46;15.50;;;14.00;;
68168;SDS011;54981;50.206;15.978;2023-02-18T05:00:18;16.60;;;14.98;;
68168;SDS011;54981;50.206;15.978;2023-02-18T05:02:49;14.85;;;13.48;;
68168;SDS011;54981;50.206;15.978;2023-02-18T05:05:19;14.98;;;13.48;;
68168;SDS011;54981;50.206;15.978;2023-02-18T05:07:49;15.60;;;14.10;;
68168;SDS011;54981;50.206;15.978;2023-02-18T05:10:20;14.27;;;12.75;;
68168;SDS011;54981;50.206;15.978;2023-02-18T05:12:50;15.27;;;13.82;;
68168;SDS011;54981;50.206;15.978;2023-02-18T05:15:21;12.82;;;11.60;;
68168;SDS011;54981;50.206;15.978;2023-02-18T05:17:51;14.57;;;13.20;;
68168;SDS011;54981;50.206;15.978;2023-02-18T05:20:21;14.70;;;13.18;;
68168;SDS011;54981;50.206;15.978;2023-02-18T05:22:52;15.23;;;13.73;;
68168;SDS011;54981;50.206;15.978;2023-02-18T05:25:22;14.57;;;13.07;;
68168;SDS011;54981;50.206;15.978;2023-02-18T05:27:52;12.90;;;11.75;;
68168;SDS011;54981;50.206;15.978;2023-02-18T05:30:23;14.13;;;12.73;;
68168;SDS011;54981;50.206;15.978;2023-02-18T05:32:53;15.07;;;13.38;;
68168;SDS011;54981;50.206;15.978;2023-02-18T05:35:23;15.05;;;13.52;;
68168;SDS011;54981;50.206;15.978;2023-02-18T05:37:54;15.63;;;13.50;;
68168;SDS011;54981;50.206;15.978;2023-02-18T05:40:24;16.35;;;14.80;;
68168;SDS011;54981;50.206;15.978;2023-02-18T05:42:54;19.27;;;15.25;;
68168;SDS011;54981;50.206;15.978;2023-02-18T05:45:25;14.18;;;12.68;;
68168;SDS011;54981;50.206;15.978;2023-02-18T05:47:55;14.65;;;13.15;;
68168;SDS011;54981;50.206;15.978;2023-02-18T05:50:26;16.92;;;14.68;;
68168;SDS011;54981;50.206;15.978;2023-02-18T05:52:56;14.80;;;13.38;;
68168;SDS011;54981;50.206;15.978;2023-02-18T05:55:26;14.80;;;13.40;;
68168;SDS011;54981;50.206;15.978;2023-02-18T05:57:57;16.33;;;14.82;;
68168;SDS011;54981;50.206;15.978;2023-02-18T06:00:27;16.20;;;14.65;;
68168;SDS011;54981;50.206;15.978;2023-02-18T06:02:59;15.48;;;13.90;;
68168;SDS011;54981;50.206;15.978;2023-02-18T06:05:29;16.58;;;13.48;;
68168;SDS011;54981;50.206;15.978;2023-02-18T06:07:59;16.80;;;15.15;;
68168;SDS011;54981;50.206;15.978;2023-02-18T06:10:30;15.63;;;14.05;;
68168;SDS011;54981;50.206;15.978;2023-02-18T06:13:00;16.52;;;13.88;;
68168;SDS011;54981;50.206;15.978;2023-02-18T06:15:31;17.50;;;14.68;;
68168;SDS011;54981;50.206;15.978;2023-02-18T06:18:01;15.60;;;13.95;;
68168;SDS011;54981;50.206;15.978;2023-02-18T06:20:32;16.17;;;14.52;;
68168;SDS011;54981;50.206;15.978;2023-02-18T06:23:02;16.08;;;14.27;;
68168;SDS011;54981;50.206;15.978;2023-02-18T06:25:32;17.05;;;15.32;;
68168;SDS011;54981;50.206;15.978;2023-02-18T06:28:03;17.20;;;15.57;;
68168;SDS011;54981;50.206;15.978;2023-02-18T06:30:33;18.05;;;16.17;;
68168;SDS011;54981;50.206;15.978;2023-02-18T06:33:04;19.88;;;17.48;;
68168;SDS011;54981;50.206;15.978;2023-02-18T06:35:34;19.02;;;17.17;;
68168;SDS011;54981;50.206;15.978;2023-02-18T06:38:05;20.50;;;17.65;;
68168;SDS011;54981;50.206;15.978;2023-02-18T06:40:35;20.33;;;18.23;;
68168;SDS011;54981;50.206;15.978;2023-02-18T06:43:05;18.85;;;17.13;;
68168;SDS011;54981;50.206;15.978;2023-02-18T06:45:37;19.27;;;17.23;;
68168;SDS011;54981;50.206;15.978;2023-02-18T06:48:08;17.65;;;16.10;;
68168;SDS011;54981;50.206;15.978;2023-02-18T06:50:39;17.50;;;15.73;;
68168;SDS011;54981;50.206;15.978;2023-02-18T06:53:10;18.92;;;16.95;;
68168;SDS011;54981;50.206;15.978;2023-02-18T06:55:42;17.05;;;15.32;;
68168;SDS011;54981;50.206;15.978;2023-02-18T06:58:13;19.60;;;17.73;;
68168;SDS011;54981;50.206;15.978;2023-02-18T07:00:44;17.85;;;16.05;;
68168;SDS011;54981;50.206;15.978;2023-02-18T07:03:14;19.05;;;17.15;;
68168;SDS011;54981;50.206;15.978;2023-02-18T07:05:45;22.50;;;18.42;;
68168;SDS011;54981;50.206;15.978;2023-02-18T07:08:15;18.40;;;16.42;;
68168;SDS011;54981;50.206;15.978;2023-02-18T07:10:46;20.63;;;18.67;;
68168;SDS011;54981;50.206;15.978;2023-02-18T07:13:17;19.08;;;17.15;;
68168;SDS011;54981;50.206;15.978;2023-02-18T07:15:47;18.80;;;16.88;;
68168;SDS011;54981;50.206;15.978;2023-02-18T07:18:17;19.38;;;17.50;;
68168;SDS011;54981;50.206;15.978;2023-02-18T07:20:48;19.88;;;18.08;;
68168;SDS011;54981;50.206;15.978;2023-02-18T07:23:18;19.42;;;17.25;;
68168;SDS011;54981;50.206;15.978;2023-02-18T07:25:48;20.75;;;18.77;;
68168;SDS011;54981;50.206;15.978;2023-02-18T07:28:19;22.73;;;20.27;;
68168;SDS011;54981;50.206;15.978;2023-02-18T07:30:49;20.95;;;18.83;;
68168;SDS011;54981;50.206;15.978;2023-02-18T07:33:19;23.80;;;21.58;;
68168;SDS011;54981;50.206;15.978;2023-02-18T07:35:54;23.70;;;21.17;;
68168;SDS011;54981;50.206;15.978;2023-02-18T07:38:26;24.63;;;22.33;;
68168;SDS011;54981;50.206;15.978;2023-02-18T07:40:57;24.85;;;22.40;;
68168;SDS011;54981;50.206;15.978;2023-02-18T07:43:28;23.95;;;21.55;;
68168;SDS011;54981;50.206;15.978;2023-02-18T07:45:58;24.95;;;22.42;;
68168;SDS011;54981;50.206;15.978;2023-02-18T07:48:29;21.95;;;19.73;;
68168;SDS011;54981;50.206;15.978;2023-02-18T07:50:59;20.05;;;17.92;;
68168;SDS011;54981;50.206;15.978;2023-02-18T07:53:29;20.92;;;18.77;;
68168;SDS011;54981;50.206;15.978;2023-02-18T07:56:00;20.38;;;18.30;;
68168;SDS011;54981;50.206;15.978;2023-02-18T07:58:32;19.23;;;17.40;;
68168;SDS011;54981;50.206;15.978;2023-02-18T08:01:05;20.27;;;17.90;;
68168;SDS011;54981;50.206;15.978;2023-02-18T08:03:37;20.07;;;17.63;;
68168;SDS011;54981;50.206;15.978;2023-02-18T08:06:53;19.42;;;17.45;;
68168;SDS011;54981;50.206;15.978;2023-02-18T08:09:04;19.10;;;17.10;;
68168;SDS011;54981;50.206;15.978;2023-02-18T08:11:35;19.80;;;17.88;;
68168;SDS011;54981;50.206;15.978;2023-02-18T08:14:05;18.73;;;16.85;;
68168;SDS011;54981;50.206;15.978;2023-02-18T08:16:36;19.98;;;17.98;;
68168;SDS011;54981;50.206;15.978;2023-02-18T08:19:06;17.33;;;15.73;;
68168;SDS011;54981;50.206;15.978;2023-02-18T08:21:37;19.92;;;18.05;;
68168;SDS011;54981;50.206;15.978;2023-02-18T08:24:07;18.55;;;16.80;;
68168;SDS011;54981;50.206;15.978;2023-02-18T08:26:38;19.00;;;17.10;;
68168;SDS011;54981;50.206;15.978;2023-02-18T08:29:08;18.60;;;16.88;;
68168;SDS011;54981;50.206;15.978;2023-02-18T08:31:39;20.73;;;18.83;;
68168;SDS011;54981;50.206;15.978;2023-02-18T08:34:09;20.42;;;18.35;;
68168;SDS011;54981;50.206;15.978;2023-02-18T08:36:39;21.90;;;19.65;;
68168;SDS011;54981;50.206;15.978;2023-02-18T08:39:10;24.50;;;20.65;;
68168;SDS011;54981;50.206;15.978;2023-02-18T08:41:40;26.63;;;23.77;;
68168;SDS011;54981;50.206;15.978;2023-02-18T08:44:10;26.52;;;24.00;;
68168;SDS011;54981;50.206;15.978;2023-02-18T08:46:41;26.08;;;23.48;;
68168;SDS011;54981;50.206;15.978;2023-02-18T08:49:11;26.05;;;23.73;;
68168;SDS011;54981;50.206;15.978;2023-02-18T08:51:42;25.35;;;22.58;;
68168;SDS011;54981;50.206;15.978;2023-02-18T08:54:12;24.92;;;22.38;;
68168;SDS011;54981;50.206;15.978;2023-02-18T08:56:42;25.73;;;23.25;;
68168;SDS011;54981;50.206;15.978;2023-02-18T08:59:13;24.95;;;22.42;;
68168;SDS011;54981;50.206;15.978;2023-02-18T09:01:43;26.08;;;22.45;;
68168;SDS011;54981;50.206;15.978;2023-02-18T09:04:14;27.67;;;24.98;;
68168;SDS011;54981;50.206;15.978;2023-02-18T09:06:44;29.77;;;26.60;;
68168;SDS011;54981;50.206;15.978;2023-02-18T09:09:16;31.10;;;27.85;;
68168;SDS011;54981;50.206;15.978;2023-02-18T09:11:46;38.85;;;34.70;;
68168;SDS011;54981;50.206;15.978;2023-02-18T09:14:17;42.65;;;38.50;;
68168;SDS011;54981;50.206;15.978;2023-02-18T09:16:47;51.85;;;46.67;;
68168;SDS011;54981;50.206;15.978;2023-02-18T09:19:19;45.65;;;41.08;;
68168;SDS011;54981;50.206;15.978;2023-02-18T09:21:50;47.80;;;42.63;;
68168;SDS011;54981;50.206;15.978;2023-02-18T09:24:22;46.38;;;41.83;;
68168;SDS011;54981;50.206;15.978;2023-02-18T09:26:53;50.65;;;45.40;;
68168;SDS011;54981;50.206;15.978;2023-02-18T09:29:24;51.38;;;46.15;;
68168;SDS011;54981;50.206;15.978;2023-02-18T09:31:55;58.78;;;52.67;;
68168;SDS011;54981;50.206;15.978;2023-02-18T09:34:30;58.25;;;52.40;;
68168;SDS011;54981;50.206;15.978;2023-02-18T09:37:01;63.45;;;56.85;;
68168;SDS011;54981;50.206;15.978;2023-02-18T09:39:32;52.38;;;47.17;;
68168;SDS011;54981;50.206;15.978;2023-02-18T09:42:12;53.50;;;48.33;;
68168;SDS011;54981;50.206;15.978;2023-02-18T09:44:50;52.25;;;47.20;;
68168;SDS011;54981;50.206;15.978;2023-02-18T09:47:44;48.88;;;43.95;;
68168;SDS011;54981;50.206;15.978;2023-02-18T09:50:18;49.78;;;44.78;;
68168;SDS011;54981;50.206;15.978;2023-02-18T09:52:50;51.35;;;45.97;;
68168;SDS011;54981;50.206;15.978;2023-02-18T09:55:23;61.90;;;55.63;;
68168;SDS011;54981;50.206;15.978;2023-02-18T09:58:02;65.15;;;58.25;;
68168;SDS011;54981;50.206;15.978;2023-02-18T10:00:38;46.92;;;42.03;;
68168;SDS011;54981;50.206;15.978;2023-02-18T10:05:54;35.13;;;31.77;;
68168;SDS011;54981;50.206;15.978;2023-02-18T10:08:27;32.05;;;29.15;;
68168;SDS011;54981;50.206;15.978;2023-02-18T10:11:00;38.13;;;34.53;;
68168;SDS011;54981;50.206;15.978;2023-02-18T10:13:32;38.97;;;35.13;;
68168;SDS011;54981;50.206;15.978;2023-02-18T10:16:03;44.00;;;39.65;;
68168;SDS011;54981;50.206;15.978;2023-02-18T10:18:36;35.92;;;32.42;;
68168;SDS011;54981;50.206;15.978;2023-02-18T10:21:11;33.58;;;30.23;;
68168;SDS011;54981;50.206;15.978;2023-02-18T10:23:49;34.40;;;31.02;;
68168;SDS011;54981;50.206;15.978;2023-02-18T10:26:28;31.83;;;28.75;;
68168;SDS011;54981;50.206;15.978;2023-02-18T10:29:00;28.00;;;25.40;;
68168;SDS011;54981;50.206;15.978;2023-02-18T10:31:33;33.67;;;30.42;;
68168;SDS011;54981;50.206;15.978;2023-02-18T10:34:10;46.45;;;41.78;;
68168;SDS011;54981;50.206;15.978;2023-02-18T10:36:54;42.67;;;38.58;;
68168;SDS011;54981;50.206;15.978;2023-02-18T10:45:08;28.92;;;26.05;;
68168;SDS011;54981;50.206;15.978;2023-02-18T10:50:43;33.40;;;30.08;;
68168;SDS011;54981;50.206;15.978;2023-02-18T10:53:21;33.80;;;30.60;;
68168;SDS011;54981;50.206;15.978;2023-02-18T10:56:04;32.60;;;29.45;;
68168;SDS011;54981;50.206;15.978;2023-02-18T10:58:36;34.63;;;31.33;;
68168;SDS011;54981;50.206;15.978;2023-02-18T11:01:16;36.25;;;32.78;;
68168;SDS011;54981;50.206;15.978;2023-02-18T11:03:50;31.55;;;28.40;;
68168;SDS011;54981;50.206;15.978;2023-02-18T11:06:36;26.98;;;24.35;;
68168;SDS011;54981;50.206;15.978;2023-02-18T11:12:51;27.35;;;24.63;;
68168;SDS011;54981;50.206;15.978;2023-02-18T11:15:26;26.95;;;24.48;;
68168;SDS011;54981;50.206;15.978;2023-02-18T11:18:10;35.38;;;31.77;;
68168;SDS011;54981;50.206;15.978;2023-02-18T11:20:58;36.25;;;32.65;;
68168;SDS011;54981;50.206;15.978;2023-02-18T11:23:30;40.05;;;35.83;;
68168;SDS011;54981;50.206;15.978;2023-02-18T11:26:02;38.83;;;35.10;;
68168;SDS011;54981;50.206;15.978;2023-02-18T11:28:41;36.30;;;33.00;;
68168;SDS011;54981;50.206;15.978;2023-02-18T11:31:24;40.55;;;36.67;;
68168;SDS011;54981;50.206;15.978;2023-02-18T11:33:59;34.05;;;30.85;;
68168;SDS011;54981;50.206;15.978;2023-02-18T11:36:33;24.73;;;22.42;;
68168;SDS011;54981;50.206;15.978;2023-02-18T11:39:05;26.17;;;23.77;;
68168;SDS011;54981;50.206;15.978;2023-02-18T11:41:52;27.70;;;25.17;;
68168;SDS011;54981;50.206;15.978;2023-02-18T11:44:37;24.27;;;22.17;;
68168;SDS011;54981;50.206;15.978;2023-02-18T11:47:20;20.30;;;18.48;;
68168;SDS011;54981;50.206;15.978;2023-02-18T11:50:00;16.88;;;15.27;;
68168;SDS011;54981;50.206;15.978;2023-02-18T11:55:07;15.20;;;13.90;;
68168;SDS011;54981;50.206;15.978;2023-02-18T11:57:54;12.88;;;11.68;;
68168;SDS011;54981;50.206;15.978;2023-02-18T12:01:02;12.27;;;11.27;;
68168;SDS011;54981;50.206;15.978;2023-02-18T12:06:17;10.63;;;9.70;;
68168;SDS011;54981;50.206;15.978;2023-02-18T12:12:12;11.25;;;10.25;;
68168;SDS011;54981;50.206;15.978;2023-02-18T12:14:46;11.25;;;10.23;;
68168;SDS011;54981;50.206;15.978;2023-02-18T12:26:11;9.98;;;9.07;;
68168;SDS011;54981;50.206;15.978;2023-02-18T12:29:05;10.27;;;9.38;;
68168;SDS011;54981;50.206;15.978;2023-02-18T12:37:42;11.48;;;9.43;;
68168;SDS011;54981;50.206;15.978;2023-02-18T12:49:09;13.13;;;12.05;;
68168;SDS011;54981;50.206;15.978;2023-02-18T12:57:38;16.33;;;14.82;;
68168;SDS011;54981;50.206;15.978;2023-02-18T13:03:44;12.93;;;11.88;;
68168;SDS011;54981;50.206;15.978;2023-02-18T13:06:37;12.05;;;11.07;;
68168;SDS011;54981;50.206;15.978;2023-02-18T13:14:55;10.77;;;10.02;;
68168;SDS011;54981;50.206;15.978;2023-02-18T13:17:33;11.27;;;10.38;;
68168;SDS011;54981;50.206;15.978;2023-02-18T13:22:47;11.45;;;10.63;;
68168;SDS011;54981;50.206;15.978;2023-02-18T13:25:19;11.10;;;10.20;;
68168;SDS011;54981;50.206;15.978;2023-02-18T13:28:05;10.82;;;9.95;;
68168;SDS011;54981;50.206;15.978;2023-02-18T13:33:56;11.50;;;10.50;;
68168;SDS011;54981;50.206;15.978;2023-02-18T13:39:26;15.80;;;14.50;;
68168;SDS011;54981;50.206;15.978;2023-02-18T13:47:36;13.05;;;11.95;;
68168;SDS011;54981;50.206;15.978;2023-02-18T13:50:30;13.43;;;12.32;;
68168;SDS011;54981;50.206;15.978;2023-02-18T13:55:51;12.60;;;11.55;;
68168;SDS011;54981;50.206;15.978;2023-02-18T13:58:23;14.10;;;12.90;;
68168;SDS011;54981;50.206;15.978;2023-02-18T14:01:05;13.40;;;12.18;;
68168;SDS011;54981;50.206;15.978;2023-02-18T14:06:16;14.38;;;13.27;;
68168;SDS011;54981;50.206;15.978;2023-02-18T14:08:48;11.18;;;10.18;;
68168;SDS011;54981;50.206;15.978;2023-02-18T14:11:30;13.77;;;12.67;;
68168;SDS011;54981;50.206;15.978;2023-02-18T14:17:28;14.13;;;13.05;;
68168;SDS011;54981;50.206;15.978;2023-02-18T14:22:33;13.38;;;12.27;;
68168;SDS011;54981;50.206;15.978;2023-02-18T14:28:03;14.60;;;13.32;;
68168;SDS011;54981;50.206;15.978;2023-02-18T14:30:53;14.43;;;13.20;;
68168;SDS011;54981;50.206;15.978;2023-02-18T14:33:24;13.73;;;12.52;;
68168;SDS011;54981;50.206;15.978;2023-02-18T14:38:49;14.35;;;13.10;;
68168;SDS011;54981;50.206;15.978;2023-02-18T14:44:25;16.00;;;14.70;;
68168;SDS011;54981;50.206;15.978;2023-02-18T14:49:58;13.90;;;12.77;;
68168;SDS011;54981;50.206;15.978;2023-02-18T14:58:02;13.90;;;12.80;;
68168;SDS011;54981;50.206;15.978;2023-02-18T15:00:40;15.05;;;13.50;;
68168;SDS011;54981;50.206;15.978;2023-02-18T15:03:15;14.88;;;13.68;;
68168;SDS011;54981;50.206;15.978;2023-02-18T15:05:51;14.18;;;12.98;;
68168;SDS011;54981;50.206;15.978;2023-02-18T15:08:24;14.68;;;13.48;;
68168;SDS011;54981;50.206;15.978;2023-02-18T15:10:56;13.95;;;12.75;;
68168;SDS011;54981;50.206;15.978;2023-02-18T15:13:34;14.90;;;13.70;;
68168;SDS011;54981;50.206;15.978;2023-02-18T15:16:06;13.88;;;12.68;;
68168;SDS011;54981;50.206;15.978;2023-02-18T15:18:54;13.02;;;11.88;;
68168;SDS011;54981;50.206;15.978;2023-02-18T15:21:48;15.00;;;13.70;;
68168;SDS011;54981;50.206;15.978;2023-02-18T15:24:29;13.50;;;12.38;;
68168;SDS011;54981;50.206;15.978;2023-02-18T15:29:40;18.52;;;16.85;;
68168;SDS011;54981;50.206;15.978;2023-02-18T15:32:21;15.55;;;14.38;;
68168;SDS011;54981;50.206;15.978;2023-02-18T15:35:00;15.35;;;14.15;;
68168;SDS011;54981;50.206;15.978;2023-02-18T15:37:32;16.58;;;15.18;;
68168;SDS011;54981;50.206;15.978;2023-02-18T15:40:02;17.45;;;15.95;;
68168;SDS011;54981;50.206;15.978;2023-02-18T15:42:35;19.35;;;17.77;;
68168;SDS011;54981;50.206;15.978;2023-02-18T15:45:14;17.42;;;15.95;;
68168;SDS011;54981;50.206;15.978;2023-02-18T15:47:52;17.10;;;15.65;;
68168;SDS011;54981;50.206;15.978;2023-02-18T15:50:32;16.30;;;14.98;;
68168;SDS011;54981;50.206;15.978;2023-02-18T15:53:06;15.63;;;14.40;;
68168;SDS011;54981;50.206;15.978;2023-02-18T15:55:45;16.58;;;15.07;;
68168;SDS011;54981;50.206;15.978;2023-02-18T15:58:18;17.30;;;15.77;;
68168;SDS011;54981;50.206;15.978;2023-02-18T16:00:56;16.40;;;15.10;;
68168;SDS011;54981;50.206;15.978;2023-02-18T16:06:09;15.63;;;14.32;;
68168;SDS011;54981;50.206;15.978;2023-02-18T16:08:40;15.75;;;14.32;;
68168;SDS011;54981;50.206;15.978;2023-02-18T16:11:10;15.80;;;14.50;;
68168;SDS011;54981;50.206;15.978;2023-02-18T16:13:45;15.77;;;14.48;;
68168;SDS011;54981;50.206;15.978;2023-02-18T16:16:21;16.42;;;14.98;;
68168;SDS011;54981;50.206;15.978;2023-02-18T16:19:02;16.67;;;15.23;;
68168;SDS011;54981;50.206;15.978;2023-02-18T16:21:38;14.95;;;13.52;;
68168;SDS011;54981;50.206;15.978;2023-02-18T16:24:23;14.93;;;13.60;;
68168;SDS011;54981;50.206;15.978;2023-02-18T16:26:58;14.75;;;13.63;;
68168;SDS011;54981;50.206;15.978;2023-02-18T16:29:38;14.93;;;13.77;;
68168;SDS011;54981;50.206;15.978;2023-02-18T16:32:11;13.82;;;12.82;;
68168;SDS011;54981;50.206;15.978;2023-02-18T16:34:41;13.32;;;12.30;;
68168;SDS011;54981;50.206;15.978;2023-02-18T16:37:11;14.05;;;12.55;;
68168;SDS011;54981;50.206;15.978;2023-02-18T16:40:00;12.43;;;11.43;;
68168;SDS011;54981;50.206;15.978;2023-02-18T16:42:31;11.98;;;11.07;;
68168;SDS011;54981;50.206;15.978;2023-02-18T16:45:01;12.32;;;11.27;;
68168;SDS011;54981;50.206;15.978;2023-02-18T16:47:31;12.65;;;11.55;;
68168;SDS011;54981;50.206;15.978;2023-02-18T16:50:03;12.13;;;11.23;;
68168;SDS011;54981;50.206;15.978;2023-02-18T16:52:35;11.52;;;10.63;;
68168;SDS011;54981;50.206;15.978;2023-02-18T16:55:14;11.85;;;10.95;;
68168;SDS011;54981;50.206;15.978;2023-02-18T16:57:52;9.90;;;9.18;;
68168;SDS011;54981;50.206;15.978;2023-02-18T17:00:24;10.95;;;10.05;;
68168;SDS011;54981;50.206;15.978;2023-02-18T17:02:55;11.30;;;10.50;;
68168;SDS011;54981;50.206;15.978;2023-02-18T17:05:29;11.60;;;10.65;;
68168;SDS011;54981;50.206;15.978;2023-02-18T17:08:22;10.40;;;9.70;;
68168;SDS011;54981;50.206;15.978;2023-02-18T17:10:56;10.02;;;9.02;;
68168;SDS011;54981;50.206;15.978;2023-02-18T17:13:28;10.27;;;9.38;;
68168;SDS011;54981;50.206;15.978;2023-02-18T17:15:59;10.75;;;9.75;;
68168;SDS011;54981;50.206;15.978;2023-02-18T17:18:29;9.45;;;8.75;;
68168;SDS011;54981;50.206;15.978;2023-02-18T17:20:59;8.27;;;7.60;;
68168;SDS011;54981;50.206;15.978;2023-02-18T17:23:30;8.27;;;7.68;;
68168;SDS011;54981;50.206;15.978;2023-02-18T17:26:00;8.52;;;7.80;;